sensor_id;sensor_type;location;lat;lon;timestamp;temperature;humidity
13389;DHT22;6764;53.250;10.410;2023-03-01T00:00:41;1.10;99.90
13389;DHT22;6764;53.250;10.410;2023-03-01T00:03:11;1.10;99.90
13389;DHT22;6764;53.250;10.410;2023-03-01T00:05:46;1.00;99.90
13389;DHT22;6764;53.250;10.410;2023-03-01T00:08:12;1.00;99.90
13389;DHT22;6764;53.250;10.410;2023-03-01T00:10:38;1.00;99.90
13389;DHT22;6764;53.250;10.410;2023-03-01T00:13:03;1.00;99.90
13389;DHT22;6764;53.250;10.410;2023-03-01T00:15:31;0.90;99.90
13389;DHT22;6764;53.250;10.410;2023-03-01T00:17:57;0.80;99.90
13389;DHT22;6764;53.250;10.410;2023-03-01T00:20:23;0.70;99.90
13389;DHT22;6764;53.250;10.410;2023-03-01T00:22:48;0.70;99.90
13389;DHT22;6764;53.250;10.410;2023-03-01T00:25:14;0.80;99.90
13389;DHT22;6764;53.250;10.410;2023-03-01T00:27:40;0.80;99.90
13389;DHT22;6764;53.250;10.410;2023-03-01T00:30:06;0.80;99.90
13389;DHT22;6764;53.250;10.410;2023-03-01T00:32:31;0.80;99.90
13389;DHT22;6764;53.250;10.410;2023-03-01T00:34:57;0.70;99.90
13389;DHT22;6764;53.250;10.410;2023-03-01T00:37:23;0.70;99.90
13389;DHT22;6764;53.250;10.410;2023-03-01T00:39:49;0.60;99.90
13389;DHT22;6764;53.250;10.410;2023-03-01T00:42:16;0.60;99.90
13389;DHT22;6764;53.250;10.410;2023-03-01T00:44:42;0.60;99.90
13389;DHT22;6764;53.250;10.410;2023-03-01T00:47:08;0.60;99.90
13389;DHT22;6764;53.250;10.410;2023-03-01T00:49:34;0.60;99.90
13389;DHT22;6764;53.250;10.410;2023-03-01T00:52:00;0.60;99.90
13389;DHT22;6764;53.250;10.410;2023-03-01T00:54:25;0.50;99.90
13389;DHT22;6764;53.250;10.410;2023-03-01T00:56:51;0.50;99.90
13389;DHT22;6764;53.250;10.410;2023-03-01T00:59:16;0.50;99.90
13389;DHT22;6764;53.250;10.410;2023-03-01T01:01:42;0.50;99.90
13389;DHT22;6764;53.250;10.410;2023-03-01T01:04:11;0.40;99.90
13389;DHT22;6764;53.250;10.410;2023-03-01T01:06:42;0.40;99.90
13389;DHT22;6764;53.250;10.410;2023-03-01T01:09:10;0.30;99.90
13389;DHT22;6764;53.250;10.410;2023-03-01T01:11:43;0.30;99.90
13389;DHT22;6764;53.250;10.410;2023-03-01T01:14:09;0.30;99.90
13389;DHT22;6764;53.250;10.410;2023-03-01T01:16:35;0.30;99.90
13389;DHT22;6764;53.250;10.410;2023-03-01T01:19:00;0.30;99.90
13389;DHT22;6764;53.250;10.410;2023-03-01T01:21:27;0.30;99.90
13389;DHT22;6764;53.250;10.410;2023-03-01T01:23:53;0.20;99.90
13389;DHT22;6764;53.250;10.410;2023-03-01T01:26:24;0.20;99.90
13389;DHT22;6764;53.250;10.410;2023-03-01T01:28:51;0.00;99.90
13389;DHT22;6764;53.250;10.410;2023-03-01T01:31:18;0.00;99.90
13389;DHT22;6764;53.250;10.410;2023-03-01T01:33:45;0.00;99.90
13389;DHT22;6764;53.250;10.410;2023-03-01T01:36:11;-0.10;99.90
13389;DHT22;6764;53.250;10.410;2023-03-01T01:38:37;0.00;99.90
13389;DHT22;6764;53.250;10.410;2023-03-01T01:41:05;-0.10;99.90
13389;DHT22;6764;53.250;10.410;2023-03-01T01:43:39;0.00;99.90
13389;DHT22;6764;53.250;10.410;2023-03-01T01:46:31;0.10;99.90
13389;DHT22;6764;53.250;10.410;2023-03-01T01:49:02;0.00;99.90
13389;DHT22;6764;53.250;10.410;2023-03-01T01:51:36;-0.10;99.90
13389;DHT22;6764;53.250;10.410;2023-03-01T01:54:16;-0.10;99.90
13389;DHT22;6764;53.250;10.410;2023-03-01T01:56:48;0.10;99.90
13389;DHT22;6764;53.250;10.410;2023-03-01T01:59:14;0.10;99.90
13389;DHT22;6764;53.250;10.410;2023-03-01T02:01:40;0.10;99.90
13389;DHT22;6764;53.250;10.410;2023-03-01T02:04:06;0.10;99.90
13389;DHT22;6764;53.250;10.410;2023-03-01T02:06:39;0.20;99.90
13389;DHT22;6764;53.250;10.410;2023-03-01T02:09:13;0.00;99.90
13389;DHT22;6764;53.250;10.410;2023-03-01T02:11:40;0.00;99.90
13389;DHT22;6764;53.250;10.410;2023-03-01T02:14:06;-0.10;99.90
13389;DHT22;6764;53.250;10.410;2023-03-01T02:16:31;-0.10;99.90
13389;DHT22;6764;53.250;10.410;2023-03-01T02:18:58;0.00;99.90
13389;DHT22;6764;53.250;10.410;2023-03-01T02:21:30;0.00;99.90
13389;DHT22;6764;53.250;10.410;2023-03-01T02:24:11;0.00;99.90
13389;DHT22;6764;53.250;10.410;2023-03-01T02:26:47;-0.10;99.90
13389;DHT22;6764;53.250;10.410;2023-03-01T02:29:13;-0.10;99.90
13389;DHT22;6764;53.250;10.410;2023-03-01T02:31:40;-0.10;99.90
13389;DHT22;6764;53.250;10.410;2023-03-01T02:34:18;-0.10;99.90
13389;DHT22;6764;53.250;10.410;2023-03-01T02:36:58;-0.20;99.90
13389;DHT22;6764;53.250;10.410;2023-03-01T02:39:32;-0.30;99.90
13389;DHT22;6764;53.250;10.410;2023-03-01T02:41:58;-0.20;99.90
13389;DHT22;6764;53.250;10.410;2023-03-01T02:44:25;-0.20;99.90
13389;DHT22;6764;53.250;10.410;2023-03-01T02:46:53;-0.10;99.90
13389;DHT22;6764;53.250;10.410;2023-03-01T02:49:27;-0.10;99.90
13389;DHT22;6764;53.250;10.410;2023-03-01T02:55:12;-0.10;99.90
13389;DHT22;6764;53.250;10.410;2023-03-01T02:57:42;-0.10;99.90
13389;DHT22;6764;53.250;10.410;2023-03-01T03:00:30;-0.20;99.90
13389;DHT22;6764;53.250;10.410;2023-03-01T03:02:58;-0.20;99.90
13389;DHT22;6764;53.250;10.410;2023-03-01T03:05:29;-0.20;99.90
13389;DHT22;6764;53.250;10.410;2023-03-01T03:07:55;-0.10;99.90
13389;DHT22;6764;53.250;10.410;2023-03-01T03:10:25;-0.10;99.90
13389;DHT22;6764;53.250;10.410;2023-03-01T03:13:04;-0.20;99.90
13389;DHT22;6764;53.250;10.410;2023-03-01T03:15:30;-0.20;99.90
13389;DHT22;6764;53.250;10.410;2023-03-01T03:17:57;-0.20;99.90
13389;DHT22;6764;53.250;10.410;2023-03-01T03:20:26;-0.20;99.90
13389;DHT22;6764;53.250;10.410;2023-03-01T03:22:55;-0.30;99.90
13389;DHT22;6764;53.250;10.410;2023-03-01T03:25:21;-0.30;99.90
13389;DHT22;6764;53.250;10.410;2023-03-01T03:27:48;-0.30;99.90
13389;DHT22;6764;53.250;10.410;2023-03-01T03:30:19;-0.50;99.90
13389;DHT22;6764;53.250;10.410;2023-03-01T03:32:46;-0.50;99.90
13389;DHT22;6764;53.250;10.410;2023-03-01T03:35:19;-0.40;99.90
13389;DHT22;6764;53.250;10.410;2023-03-01T03:37:44;-0.40;99.90
13389;DHT22;6764;53.250;10.410;2023-03-01T03:42:59;-0.40;99.90
13389;DHT22;6764;53.250;10.410;2023-03-01T03:45:25;-0.50;99.90
13389;DHT22;6764;53.250;10.410;2023-03-01T03:47:50;-0.50;99.90
13389;DHT22;6764;53.250;10.410;2023-03-01T03:50:17;-0.40;99.90
13389;DHT22;6764;53.250;10.410;2023-03-01T03:52:43;-0.50;99.90
13389;DHT22;6764;53.250;10.410;2023-03-01T03:55:11;-0.50;99.90
13389;DHT22;6764;53.250;10.410;2023-03-01T03:57:38;-0.30;99.90
13389;DHT22;6764;53.250;10.410;2023-03-01T04:00:05;-0.30;99.90
13389;DHT22;6764;53.250;10.410;2023-03-01T04:02:43;-0.30;99.90
13389;DHT22;6764;53.250;10.410;2023-03-01T04:05:10;-0.30;99.90
13389;DHT22;6764;53.250;10.410;2023-03-01T04:07:37;-0.20;99.90
13389;DHT22;6764;53.250;10.410;2023-03-01T04:10:09;-0.20;99.90
13389;DHT22;6764;53.250;10.410;2023-03-01T04:12:35;-0.10;99.90
13389;DHT22;6764;53.250;10.410;2023-03-01T04:15:02;-0.10;99.90
13389;DHT22;6764;53.250;10.410;2023-03-01T04:17:38;0.00;99.90
13389;DHT22;6764;53.250;10.410;2023-03-01T04:20:05;0.00;99.90
13389;DHT22;6764;53.250;10.410;2023-03-01T04:22:31;0.00;99.90
13389;DHT22;6764;53.250;10.410;2023-03-01T04:24:57;0.00;99.90
13389;DHT22;6764;53.250;10.410;2023-03-01T04:27:23;-0.10;99.90
13389;DHT22;6764;53.250;10.410;2023-03-01T04:29:49;-0.20;99.90
13389;DHT22;6764;53.250;10.410;2023-03-01T04:32:14;-0.20;99.90
13389;DHT22;6764;53.250;10.410;2023-03-01T04:34:41;-0.20;99.90
13389;DHT22;6764;53.250;10.410;2023-03-01T04:37:07;-0.30;99.90
13389;DHT22;6764;53.250;10.410;2023-03-01T04:39:32;-0.40;99.90
13389;DHT22;6764;53.250;10.410;2023-03-01T04:41:58;-0.40;99.90
13389;DHT22;6764;53.250;10.410;2023-03-01T04:44:23;-0.40;99.90
13389;DHT22;6764;53.250;10.410;2023-03-01T04:46:49;-0.40;99.90
13389;DHT22;6764;53.250;10.410;2023-03-01T04:49:15;-0.50;99.90
13389;DHT22;6764;53.250;10.410;2023-03-01T04:51:41;-0.50;99.90
13389;DHT22;6764;53.250;10.410;2023-03-01T04:54:07;-0.50;99.90
13389;DHT22;6764;53.250;10.410;2023-03-01T04:56:34;-0.50;99.90
13389;DHT22;6764;53.250;10.410;2023-03-01T04:59:00;-0.40;99.90
13389;DHT22;6764;53.250;10.410;2023-03-01T05:01:26;-0.50;99.90
13389;DHT22;6764;53.250;10.410;2023-03-01T05:03:51;-0.50;99.90
13389;DHT22;6764;53.250;10.410;2023-03-01T05:06:18;-0.50;99.90
13389;DHT22;6764;53.250;10.410;2023-03-01T05:08:44;-0.50;99.90
13389;DHT22;6764;53.250;10.410;2023-03-01T05:11:11;-0.50;99.90
13389;DHT22;6764;53.250;10.410;2023-03-01T05:13:38;-0.50;99.90
13389;DHT22;6764;53.250;10.410;2023-03-01T05:16:04;-0.50;99.90
13389;DHT22;6764;53.250;10.410;2023-03-01T05:18:32;-0.40;99.90
13389;DHT22;6764;53.250;10.410;2023-03-01T05:21:07;-0.40;99.90
13389;DHT22;6764;53.250;10.410;2023-03-01T05:23:33;-0.40;99.90
13389;DHT22;6764;53.250;10.410;2023-03-01T05:26:01;-0.40;99.90
13389;DHT22;6764;53.250;10.410;2023-03-01T05:28:27;-0.30;99.90
13389;DHT22;6764;53.250;10.410;2023-03-01T05:30:54;-0.30;99.90
13389;DHT22;6764;53.250;10.410;2023-03-01T05:33:20;-0.30;99.90
13389;DHT22;6764;53.250;10.410;2023-03-01T05:35:47;-0.40;99.90
13389;DHT22;6764;53.250;10.410;2023-03-01T05:38:14;-0.30;99.90
13389;DHT22;6764;53.250;10.410;2023-03-01T05:40:42;-0.30;99.90
13389;DHT22;6764;53.250;10.410;2023-03-01T05:43:09;-0.30;99.90
13389;DHT22;6764;53.250;10.410;2023-03-01T05:45:36;-0.20;99.90
13389;DHT22;6764;53.250;10.410;2023-03-01T05:48:03;-0.20;99.90
13389;DHT22;6764;53.250;10.410;2023-03-01T05:50:32;-0.30;99.90
13389;DHT22;6764;53.250;10.410;2023-03-01T05:53:03;-0.20;99.90
13389;DHT22;6764;53.250;10.410;2023-03-01T05:55:31;-0.20;99.90
13389;DHT22;6764;53.250;10.410;2023-03-01T05:58:23;-0.30;99.90
13389;DHT22;6764;53.250;10.410;2023-03-01T06:00:49;-0.30;99.90
13389;DHT22;6764;53.250;10.410;2023-03-01T06:03:17;-0.30;99.90
13389;DHT22;6764;53.250;10.410;2023-03-01T06:05:43;-0.20;99.90
13389;DHT22;6764;53.250;10.410;2023-03-01T06:08:10;-0.20;99.90
13389;DHT22;6764;53.250;10.410;2023-03-01T06:10:36;-0.40;99.90
13389;DHT22;6764;53.250;10.410;2023-03-01T06:13:02;-0.40;99.90
13389;DHT22;6764;53.250;10.410;2023-03-01T06:15:28;-0.40;99.90
13389;DHT22;6764;53.250;10.410;2023-03-01T06:17:55;-0.40;99.90
13389;DHT22;6764;53.250;10.410;2023-03-01T06:20:25;-0.30;99.90
13389;DHT22;6764;53.250;10.410;2023-03-01T06:22:52;-0.30;99.90
13389;DHT22;6764;53.250;10.410;2023-03-01T06:25:20;-0.30;99.90
13389;DHT22;6764;53.250;10.410;2023-03-01T06:27:46;-0.20;99.90
13389;DHT22;6764;53.250;10.410;2023-03-01T06:30:13;-0.20;99.90
13389;DHT22;6764;53.250;10.410;2023-03-01T06:32:40;-0.10;99.90
13389;DHT22;6764;53.250;10.410;2023-03-01T06:35:07;-0.10;99.90
13389;DHT22;6764;53.250;10.410;2023-03-01T06:37:33;-0.10;99.90
13389;DHT22;6764;53.250;10.410;2023-03-01T06:40:01;-0.10;99.90
13389;DHT22;6764;53.250;10.410;2023-03-01T06:42:32;-0.10;99.90
13389;DHT22;6764;53.250;10.410;2023-03-01T06:44:57;0.00;99.90
13389;DHT22;6764;53.250;10.410;2023-03-01T06:47:23;0.10;99.90
13389;DHT22;6764;53.250;10.410;2023-03-01T06:49:49;0.20;99.90
13389;DHT22;6764;53.250;10.410;2023-03-01T06:52:14;0.40;99.90
13389;DHT22;6764;53.250;10.410;2023-03-01T06:54:40;0.50;99.90
13389;DHT22;6764;53.250;10.410;2023-03-01T06:57:05;0.50;99.90
13389;DHT22;6764;53.250;10.410;2023-03-01T06:59:31;0.50;99.90
13389;DHT22;6764;53.250;10.410;2023-03-01T07:01:56;0.50;99.90
13389;DHT22;6764;53.250;10.410;2023-03-01T07:04:22;0.50;99.90
13389;DHT22;6764;53.250;10.410;2023-03-01T07:06:48;0.50;99.90
13389;DHT22;6764;53.250;10.410;2023-03-01T07:09:21;0.50;99.90
13389;DHT22;6764;53.250;10.410;2023-03-01T07:11:47;0.50;99.90
13389;DHT22;6764;53.250;10.410;2023-03-01T07:14:13;0.50;99.90
13389;DHT22;6764;53.250;10.410;2023-03-01T07:16:38;0.50;99.90
13389;DHT22;6764;53.250;10.410;2023-03-01T07:19:04;0.60;99.90
13389;DHT22;6764;53.250;10.410;2023-03-01T07:21:30;0.70;99.90
13389;DHT22;6764;53.250;10.410;2023-03-01T07:23:56;0.70;99.90
13389;DHT22;6764;53.250;10.410;2023-03-01T07:26:22;0.80;99.90
13389;DHT22;6764;53.250;10.410;2023-03-01T07:28:47;1.00;99.90
13389;DHT22;6764;53.250;10.410;2023-03-01T07:31:13;1.10;99.90
13389;DHT22;6764;53.250;10.410;2023-03-01T07:33:39;1.30;99.90
13389;DHT22;6764;53.250;10.410;2023-03-01T07:36:05;1.40;99.90
13389;DHT22;6764;53.250;10.410;2023-03-01T07:38:31;1.60;99.90
13389;DHT22;6764;53.250;10.410;2023-03-01T07:41:01;1.60;99.90
13389;DHT22;6764;53.250;10.410;2023-03-01T07:43:30;1.70;99.90
13389;DHT22;6764;53.250;10.410;2023-03-01T07:46:03;1.80;99.90
13389;DHT22;6764;53.250;10.410;2023-03-01T07:48:30;1.90;99.90
13389;DHT22;6764;53.250;10.410;2023-03-01T07:51:03;2.10;99.90
13389;DHT22;6764;53.250;10.410;2023-03-01T07:53:30;2.10;99.90
13389;DHT22;6764;53.250;10.410;2023-03-01T07:56:08;2.10;99.90
13389;DHT22;6764;53.250;10.410;2023-03-01T07:58:35;2.10;99.90
13389;DHT22;6764;53.250;10.410;2023-03-01T08:01:03;2.20;99.90
13389;DHT22;6764;53.250;10.410;2023-03-01T08:03:28;2.20;99.90
13389;DHT22;6764;53.250;10.410;2023-03-01T08:05:54;2.30;99.90
13389;DHT22;6764;53.250;10.410;2023-03-01T08:08:20;2.60;99.90
13389;DHT22;6764;53.250;10.410;2023-03-01T08:10:45;2.70;99.90
13389;DHT22;6764;53.250;10.410;2023-03-01T08:13:11;2.90;99.90
13389;DHT22;6764;53.250;10.410;2023-03-01T08:15:36;3.10;99.90
13389;DHT22;6764;53.250;10.410;2023-03-01T08:18:02;3.20;99.90
13389;DHT22;6764;53.250;10.410;2023-03-01T08:20:28;3.30;99.90
13389;DHT22;6764;53.250;10.410;2023-03-01T08:22:53;3.40;99.90
13389;DHT22;6764;53.250;10.410;2023-03-01T08:25:19;3.60;99.90
13389;DHT22;6764;53.250;10.410;2023-03-01T08:27:44;3.60;99.90
13389;DHT22;6764;53.250;10.410;2023-03-01T08:30:11;3.70;99.90
13389;DHT22;6764;53.250;10.410;2023-03-01T08:32:38;3.80;99.90
13389;DHT22;6764;53.250;10.410;2023-03-01T08:35:04;4.00;99.90
13389;DHT22;6764;53.250;10.410;2023-03-01T08:37:30;4.00;99.90
13389;DHT22;6764;53.250;10.410;2023-03-01T08:39:58;4.10;99.90
13389;DHT22;6764;53.250;10.410;2023-03-01T08:42:24;4.20;99.90
13389;DHT22;6764;53.250;10.410;2023-03-01T08:44:49;4.20;99.90
13389;DHT22;6764;53.250;10.410;2023-03-01T08:47:15;4.30;99.90
13389;DHT22;6764;53.250;10.410;2023-03-01T08:49:40;4.40;99.90
13389;DHT22;6764;53.250;10.410;2023-03-01T08:52:06;4.60;99.90
13389;DHT22;6764;53.250;10.410;2023-03-01T08:54:32;4.80;99.90
13389;DHT22;6764;53.250;10.410;2023-03-01T08:56:57;5.10;99.90
13389;DHT22;6764;53.250;10.410;2023-03-01T08:59:25;5.40;99.90
13389;DHT22;6764;53.250;10.410;2023-03-01T09:01:50;5.60;99.90
13389;DHT22;6764;53.250;10.410;2023-03-01T09:04:16;5.90;99.90
13389;DHT22;6764;53.250;10.410;2023-03-01T09:06:42;6.20;99.90
13389;DHT22;6764;53.250;10.410;2023-03-01T09:09:16;6.40;99.90
13389;DHT22;6764;53.250;10.410;2023-03-01T09:11:43;6.60;99.90
13389;DHT22;6764;53.250;10.410;2023-03-01T09:14:14;6.80;99.90
13389;DHT22;6764;53.250;10.410;2023-03-01T09:16:40;7.00;99.90
13389;DHT22;6764;53.250;10.410;2023-03-01T09:19:05;7.20;99.90
13389;DHT22;6764;53.250;10.410;2023-03-01T09:21:31;7.40;99.90
13389;DHT22;6764;53.250;10.410;2023-03-01T09:23:57;7.60;99.90
13389;DHT22;6764;53.250;10.410;2023-03-01T09:26:24;7.80;99.90
13389;DHT22;6764;53.250;10.410;2023-03-01T09:28:52;7.90;99.90
13389;DHT22;6764;53.250;10.410;2023-03-01T09:31:20;8.00;99.90
13389;DHT22;6764;53.250;10.410;2023-03-01T09:33:48;7.90;99.90
13389;DHT22;6764;53.250;10.410;2023-03-01T09:36:16;7.70;99.90
13389;DHT22;6764;53.250;10.410;2023-03-01T09:38:43;7.60;99.90
13389;DHT22;6764;53.250;10.410;2023-03-01T09:41:37;7.50;99.90
13389;DHT22;6764;53.250;10.410;2023-03-01T09:44:16;7.40;99.90
13389;DHT22;6764;53.250;10.410;2023-03-01T09:46:45;7.40;99.90
13389;DHT22;6764;53.250;10.410;2023-03-01T09:49:17;7.40;99.90
13389;DHT22;6764;53.250;10.410;2023-03-01T09:54:26;7.60;99.90
13389;DHT22;6764;53.250;10.410;2023-03-01T10:00:00;8.50;99.90
13389;DHT22;6764;53.250;10.410;2023-03-01T10:02:32;8.90;99.90
13389;DHT22;6764;53.250;10.410;2023-03-01T10:08:17;10.10;99.90
13389;DHT22;6764;53.250;10.410;2023-03-01T10:10:47;10.50;99.90
13389;DHT22;6764;53.250;10.410;2023-03-01T10:13:21;10.90;99.90
13389;DHT22;6764;53.250;10.410;2023-03-01T10:15:55;11.00;99.90
13389;DHT22;6764;53.250;10.410;2023-03-01T10:18:26;11.10;99.90
13389;DHT22;6764;53.250;10.410;2023-03-01T10:20:58;11.30;99.90
13389;DHT22;6764;53.250;10.410;2023-03-01T10:26:22;13.10;98.40
13389;DHT22;6764;53.250;10.410;2023-03-01T10:29:00;13.80;96.60
13389;DHT22;6764;53.250;10.410;2023-03-01T10:31:38;14.40;95.20
13389;DHT22;6764;53.250;10.410;2023-03-01T10:34:28;15.10;94.40
13389;DHT22;6764;53.250;10.410;2023-03-01T10:37:18;16.30;92.30
13389;DHT22;6764;53.250;10.410;2023-03-01T10:40:03;16.80;90.90
13389;DHT22;6764;53.250;10.410;2023-03-01T10:42:36;17.70;88.60
13389;DHT22;6764;53.250;10.410;2023-03-01T10:48:12;19.20;79.80
13389;DHT22;6764;53.250;10.410;2023-03-01T10:50:40;20.00;77.20
13389;DHT22;6764;53.250;10.410;2023-03-01T10:53:21;19.90;75.00
13389;DHT22;6764;53.250;10.410;2023-03-01T10:56:06;20.00;74.50
13389;DHT22;6764;53.250;10.410;2023-03-01T10:58:33;19.60;73.80
13389;DHT22;6764;53.250;10.410;2023-03-01T11:01:03;19.20;74.40
13389;DHT22;6764;53.250;10.410;2023-03-01T11:03:37;18.50;75.00
13389;DHT22;6764;53.250;10.410;2023-03-01T11:08:34;17.00;77.20
13389;DHT22;6764;53.250;10.410;2023-03-01T11:11:22;16.50;79.10
13389;DHT22;6764;53.250;10.410;2023-03-01T11:16:35;16.70;78.70
13389;DHT22;6764;53.250;10.410;2023-03-01T11:24:11;16.70;79.60
13389;DHT22;6764;53.250;10.410;2023-03-01T11:26:42;17.10;79.10
13389;DHT22;6764;53.250;10.410;2023-03-01T11:29:25;17.20;78.90
13389;DHT22;6764;53.250;10.410;2023-03-01T11:31:54;17.50;79.00
13389;DHT22;6764;53.250;10.410;2023-03-01T11:37:39;18.10;76.90
13389;DHT22;6764;53.250;10.410;2023-03-01T11:56:42;18.40;76.40
13389;DHT22;6764;53.250;10.410;2023-03-01T12:02:18;17.80;76.70
13389;DHT22;6764;53.250;10.410;2023-03-01T12:07:46;16.80;80.00
13389;DHT22;6764;53.250;10.410;2023-03-01T12:10:42;16.40;80.80
13389;DHT22;6764;53.250;10.410;2023-03-01T12:16:11;15.30;85.50
13389;DHT22;6764;53.250;10.410;2023-03-01T12:18:57;15.00;86.40
13389;DHT22;6764;53.250;10.410;2023-03-01T12:27:04;13.60;91.10
13389;DHT22;6764;53.250;10.410;2023-03-01T12:36:19;12.40;93.80
13389;DHT22;6764;53.250;10.410;2023-03-01T12:41:26;11.40;96.70
13389;DHT22;6764;53.250;10.410;2023-03-01T12:44:21;10.90;97.70
13389;DHT22;6764;53.250;10.410;2023-03-01T12:46:57;10.80;98.30
13389;DHT22;6764;53.250;10.410;2023-03-01T12:49:40;10.80;98.50
13389;DHT22;6764;53.250;10.410;2023-03-01T12:54:36;10.60;99.30
13389;DHT22;6764;53.250;10.410;2023-03-01T12:57:29;10.50;99.70
13389;DHT22;6764;53.250;10.410;2023-03-01T13:03:04;10.20;99.90
13389;DHT22;6764;53.250;10.410;2023-03-01T13:09:03;10.20;99.90
13389;DHT22;6764;53.250;10.410;2023-03-01T13:11:30;10.30;99.90
13389;DHT22;6764;53.250;10.410;2023-03-01T13:16:53;10.20;99.90
13389;DHT22;6764;53.250;10.410;2023-03-01T13:19:25;10.10;99.90
13389;DHT22;6764;53.250;10.410;2023-03-01T13:21:53;10.30;99.90
13389;DHT22;6764;53.250;10.410;2023-03-01T13:24:40;10.30;99.90
13389;DHT22;6764;53.250;10.410;2023-03-01T13:32:23;10.10;99.90
13389;DHT22;6764;53.250;10.410;2023-03-01T13:34:53;10.20;99.90
13389;DHT22;6764;53.250;10.410;2023-03-01T13:37:22;10.10;99.90
13389;DHT22;6764;53.250;10.410;2023-03-01T13:39:48;10.10;99.90
13389;DHT22;6764;53.250;10.410;2023-03-01T13:42:39;10.10;99.90
13389;DHT22;6764;53.250;10.410;2023-03-01T13:47:43;10.20;99.90
13389;DHT22;6764;53.250;10.410;2023-03-01T13:50:19;10.10;99.90
13389;DHT22;6764;53.250;10.410;2023-03-01T13:52:56;10.10;99.90
13389;DHT22;6764;53.250;10.410;2023-03-01T13:55:42;10.10;99.90
13389;DHT22;6764;53.250;10.410;2023-03-01T13:58:28;10.10;99.90
13389;DHT22;6764;53.250;10.410;2023-03-01T14:01:05;10.30;99.90
13389;DHT22;6764;53.250;10.410;2023-03-01T14:03:33;10.30;99.90
13389;DHT22;6764;53.250;10.410;2023-03-01T14:06:08;10.30;99.90
13389;DHT22;6764;53.250;10.410;2023-03-01T14:08:37;10.30;99.90
13389;DHT22;6764;53.250;10.410;2023-03-01T14:21:36;10.20;99.90
13389;DHT22;6764;53.250;10.410;2023-03-01T14:24:02;10.20;99.90
13389;DHT22;6764;53.250;10.410;2023-03-01T14:26:27;10.30;99.90
13389;DHT22;6764;53.250;10.410;2023-03-01T14:28:53;10.40;99.90
13389;DHT22;6764;53.250;10.410;2023-03-01T14:31:38;10.30;99.90
13389;DHT22;6764;53.250;10.410;2023-03-01T14:34:05;10.20;99.90
13389;DHT22;6764;53.250;10.410;2023-03-01T14:36:33;10.20;99.90
13389;DHT22;6764;53.250;10.410;2023-03-01T14:38:59;10.20;99.90
13389;DHT22;6764;53.250;10.410;2023-03-01T14:41:34;10.20;99.90
13389;DHT22;6764;53.250;10.410;2023-03-01T14:44:07;10.30;99.90
13389;DHT22;6764;53.250;10.410;2023-03-01T14:46:39;10.30;99.90
13389;DHT22;6764;53.250;10.410;2023-03-01T14:49:27;10.30;99.90
13389;DHT22;6764;53.250;10.410;2023-03-01T14:52:02;10.30;99.90
13389;DHT22;6764;53.250;10.410;2023-03-01T14:54:39;10.30;99.90
13389;DHT22;6764;53.250;10.410;2023-03-01T14:57:14;10.10;99.90
13389;DHT22;6764;53.250;10.410;2023-03-01T14:59:41;10.10;99.90
13389;DHT22;6764;53.250;10.410;2023-03-01T15:02:26;10.10;99.90
13389;DHT22;6764;53.250;10.410;2023-03-01T15:04:58;10.10;99.90
13389;DHT22;6764;53.250;10.410;2023-03-01T15:07:35;10.00;99.90
13389;DHT22;6764;53.250;10.410;2023-03-01T15:10:04;10.10;99.90
13389;DHT22;6764;53.250;10.410;2023-03-01T15:12:36;10.00;99.90
13389;DHT22;6764;53.250;10.410;2023-03-01T15:15:21;10.00;99.90
13389;DHT22;6764;53.250;10.410;2023-03-01T15:17:55;10.00;99.90
13389;DHT22;6764;53.250;10.410;2023-03-01T15:20:24;9.90;99.90
13389;DHT22;6764;53.250;10.410;2023-03-01T15:22:55;9.90;99.90
13389;DHT22;6764;53.250;10.410;2023-03-01T15:25:28;9.80;99.90
13389;DHT22;6764;53.250;10.410;2023-03-01T15:27:56;9.80;99.90
13389;DHT22;6764;53.250;10.410;2023-03-01T15:30:32;9.80;99.90
13389;DHT22;6764;53.250;10.410;2023-03-01T15:33:34;9.90;99.90
13389;DHT22;6764;53.250;10.410;2023-03-01T15:36:02;9.90;99.90
13389;DHT22;6764;53.250;10.410;2023-03-01T15:43:49;9.80;99.90
13389;DHT22;6764;53.250;10.410;2023-03-01T15:46:20;9.70;99.90
13389;DHT22;6764;53.250;10.410;2023-03-01T15:48:50;9.80;99.90
13389;DHT22;6764;53.250;10.410;2023-03-01T15:51:18;9.70;99.90
13389;DHT22;6764;53.250;10.410;2023-03-01T15:53:50;9.70;99.90
13389;DHT22;6764;53.250;10.410;2023-03-01T15:56:16;9.70;99.90
13389;DHT22;6764;53.250;10.410;2023-03-01T15:58:42;9.60;99.90
13389;DHT22;6764;53.250;10.410;2023-03-01T16:01:17;9.70;99.90
13389;DHT22;6764;53.250;10.410;2023-03-01T16:03:43;9.70;99.90
13389;DHT22;6764;53.250;10.410;2023-03-01T16:06:10;9.80;99.90
13389;DHT22;6764;53.250;10.410;2023-03-01T16:08:37;9.70;99.90
13389;DHT22;6764;53.250;10.410;2023-03-01T16:11:05;9.50;99.90
13389;DHT22;6764;53.250;10.410;2023-03-01T16:13:34;9.60;99.90
13389;DHT22;6764;53.250;10.410;2023-03-01T16:15:59;9.60;99.90
13389;DHT22;6764;53.250;10.410;2023-03-01T16:18:25;9.60;99.90
13389;DHT22;6764;53.250;10.410;2023-03-01T16:20:51;9.50;99.90
13389;DHT22;6764;53.250;10.410;2023-03-01T16:23:16;9.40;99.90
13389;DHT22;6764;53.250;10.410;2023-03-01T16:25:42;9.30;99.90
13389;DHT22;6764;53.250;10.410;2023-03-01T16:28:07;9.20;99.90
13389;DHT22;6764;53.250;10.410;2023-03-01T16:30:39;9.20;99.90
13389;DHT22;6764;53.250;10.410;2023-03-01T16:33:05;9.20;99.90
13389;DHT22;6764;53.250;10.410;2023-03-01T16:35:33;9.20;99.90
13389;DHT22;6764;53.250;10.410;2023-03-01T16:37:59;9.10;99.90
13389;DHT22;6764;53.250;10.410;2023-03-01T16:40:27;9.00;99.90
13389;DHT22;6764;53.250;10.410;2023-03-01T16:42:54;9.00;99.90
13389;DHT22;6764;53.250;10.410;2023-03-01T16:45:24;9.00;99.90
13389;DHT22;6764;53.250;10.410;2023-03-01T16:47:50;8.90;99.90
13389;DHT22;6764;53.250;10.410;2023-03-01T16:50:16;8.90;99.90
13389;DHT22;6764;53.250;10.410;2023-03-01T16:52:41;8.90;99.90
13389;DHT22;6764;53.250;10.410;2023-03-01T16:55:07;8.90;99.90
13389;DHT22;6764;53.250;10.410;2023-03-01T16:57:38;8.80;99.90
13389;DHT22;6764;53.250;10.410;2023-03-01T17:00:05;8.80;99.90
13389;DHT22;6764;53.250;10.410;2023-03-01T17:02:33;8.80;99.90
13389;DHT22;6764;53.250;10.410;2023-03-01T17:04:59;8.70;99.90
13389;DHT22;6764;53.250;10.410;2023-03-01T17:07:25;8.70;99.90
13389;DHT22;6764;53.250;10.410;2023-03-01T17:09:50;8.60;99.90
13389;DHT22;6764;53.250;10.410;2023-03-01T17:12:16;8.60;99.90
13389;DHT22;6764;53.250;10.410;2023-03-01T17:14:42;8.60;99.90
13389;DHT22;6764;53.250;10.410;2023-03-01T17:17:08;8.50;99.90
13389;DHT22;6764;53.250;10.410;2023-03-01T17:19:34;8.50;99.90
13389;DHT22;6764;53.250;10.410;2023-03-01T17:22:02;8.50;99.90
13389;DHT22;6764;53.250;10.410;2023-03-01T17:24:28;8.40;99.90
13389;DHT22;6764;53.250;10.410;2023-03-01T17:26:56;8.40;99.90
13389;DHT22;6764;53.250;10.410;2023-03-01T17:29:22;8.30;99.90
13389;DHT22;6764;53.250;10.410;2023-03-01T17:31:48;8.20;99.90
13389;DHT22;6764;53.250;10.410;2023-03-01T17:34:13;8.20;99.90
13389;DHT22;6764;53.250;10.410;2023-03-01T17:36:40;8.10;99.90
13389;DHT22;6764;53.250;10.410;2023-03-01T17:39:09;8.00;99.90
13389;DHT22;6764;53.250;10.410;2023-03-01T17:41:35;8.00;99.90